Time;durP1;ratioP1;P1;durP2;ratioP2;P2;SDS_P1;SDS_P2;PMS_P1;PMS_P2;Temp;Humidity;BMP_temperature;BMP_pressure;BME280_temperature;BME280_humidity;BME280_pressure;Samples;Min_cycle;Max_cycle;Signal;HPM_P1;HPM_P2
2023/12/07 00:01:26;;;;;;;0.28;0.25;;;3.50;99.90;;;;;;5016507;28;20678;-68
2023/12/07 00:03:52;;;;;;;0.17;0.17;;;3.50;99.90;;;;;;5025873;28;21234;-67
2023/12/07 00:06:17;;;;;;;0.15;0.10;;;3.50;99.90;;;;;;5018477;28;20024;-67
2023/12/07 00:08:43;;;;;;;0.47;0.32;;;3.50;99.90;;;;;;5020521;28;20266;-68
2023/12/07 00:11:09;;;;;;;0.10;0.10;;;3.50;99.90;;;;;;5023466;28;20061;-68
2023/12/07 00:13:34;;;;;;;0.40;0.10;;;3.50;99.90;;;;;;5025332;28;20029;-68
2023/12/07 00:16:00;;;;;;;0.13;0.10;;;3.50;99.90;;;;;;5023818;28;20044;-68
2023/12/07 00:18:25;;;;;;;0.10;0.10;;;3.60;99.90;;;;;;5027228;28;20296;-68
2023/12/07 00:20:51;;;;;;;0.20;0.20;;;3.60;99.90;;;;;;5020538;28;20040;-68
2023/12/07 00:23:17;;;;;;;0.15;0.10;;;3.60;99.90;;;;;;5023435;28;20075;-68
2023/12/07 00:25:42;;;;;;;0.20;0.20;;;3.50;99.90;;;;;;5024909;28;20698;-68
2023/12/07 00:28:08;;;;;;;0.80;0.10;;;3.50;99.90;;;;;;5024978;28;20124;-68
2023/12/07 00:30:33;;;;;;;0.00;0.00;;;3.50;99.90;;;;;;5023876;28;20848;-68
2023/12/07 00:33:00;;;;;;;0.20;0.10;;;3.50;99.90;;;;;;5026569;28;20053;-68
2023/12/07 00:35:28;;;;;;;0.40;0.10;;;3.50;99.90;;;;;;5024762;28;20303;-67
2023/12/07 00:37:55;;;;;;;0.20;0.20;;;3.50;99.90;;;;;;5023940;28;20021;-67
2023/12/07 00:40:22;;;;;;;0.05;0.05;;;3.50;99.90;;;;;;5024916;28;20374;-67
2023/12/07 00:42:47;;;;;;;0.10;0.10;;;3.50;99.90;;;;;;5027825;28;20029;-68
2023/12/07 00:45:13;;;;;;;0.10;0.10;;;3.40;99.90;;;;;;5026670;28;20327;-68
2023/12/07 00:47:39;;;;;;;0.00;0.00;;;3.40;99.90;;;;;;5025655;28;20033;-67
2023/12/07 00:50:05;;;;;;;0.30;0.10;;;3.40;99.90;;;;;;5022154;28;20024;-67
2023/12/07 00:52:32;;;;;;;0.40;0.00;;;3.40;99.90;;;;;;5024869;28;20033;-68
2023/12/07 00:54:57;;;;;;;0.08;0.08;;;3.40;99.90;;;;;;5023479;28;20037;-68
2023/12/07 00:57:23;;;;;;;0.00;0.00;;;3.50;99.90;;;;;;5024833;28;20132;-68
2023/12/07 00:59:48;;;;;;;0.00;0.00;;;3.50;99.90;;;;;;5025826;28;20178;-67
2023/12/07 01:02:14;;;;;;;0.10;0.10;;;3.50;99.90;;;;;;5026521;28;20061;-71
2023/12/07 01:04:39;;;;;;;0.10;0.00;;;3.50;99.90;;;;;;5024017;28;20056;-68
2023/12/07 01:07:05;;;;;;;0.10;0.10;;;3.60;99.90;;;;;;5024344;28;20583;-69
2023/12/07 01:09:31;;;;;;;34.78;27.92;;;3.50;99.90;;;;;;5023825;28;20090;-68
2023/12/07 01:11:57;;;;;;;1.13;1.13;;;3.60;99.90;;;;;;5024827;28;20461;-68
2023/12/07 01:14:24;;;;;;;0.10;0.10;;;3.60;99.90;;;;;;5024035;28;20447;-67
2023/12/07 01:16:49;;;;;;;0.10;0.10;;;3.60;99.90;;;;;;5027244;28;20094;-69
2023/12/07 01:19:15;;;;;;;0.00;0.00;;;3.60;99.90;;;;;;5026772;28;20056;-67
2023/12/07 01:21:41;;;;;;;0.20;0.10;;;3.60;99.90;;;;;;5022218;28;20033;-68
2023/12/07 01:24:08;;;;;;;0.20;0.10;;;3.60;99.90;;;;;;5018227;28;20120;-68
2023/12/07 01:26:33;;;;;;;0.10;0.10;;;3.60;99.90;;;;;;5020556;28;20691;-67
2023/12/07 01:28:59;;;;;;;0.17;0.17;;;3.60;99.90;;;;;;5019725;28;20032;-67
2023/12/07 01:31:25;;;;;;;0.30;0.30;;;3.60;99.90;;;;;;5022747;28;20188;-67
2023/12/07 01:33:50;;;;;;;0.10;0.10;;;3.60;99.90;;;;;;5021276;28;20037;-67
2023/12/07 01:36:16;;;;;;;0.00;0.00;;;3.60;99.90;;;;;;5016124;28;20414;-68
2023/12/07 01:38:43;;;;;;;0.10;0.10;;;3.60;99.90;;;;;;5025623;28;20046;-69
2023/12/07 01:41:09;;;;;;;0.00;0.00;;;3.60;99.90;;;;;;5025337;28;20113;-68
2023/12/07 01:43:35;;;;;;;1.13;0.10;;;3.60;99.90;;;;;;5024381;28;20029;-67
2023/12/07 01:46:00;;;;;;;0.00;0.00;;;3.60;99.90;;;;;;5019356;28;20724;-67
2023/12/07 01:48:26;;;;;;;0.20;0.10;;;3.60;99.90;;;;;;5020392;28;20120;-67
2023/12/07 01:50:54;;;;;;;0.13;0.10;;;3.60;99.90;;;;;;5018610;28;20052;-63
2023/12/07 01:53:22;;;;;;;0.20;0.10;;;3.60;99.90;;;;;;5020660;28;20033;-63
2023/12/07 01:55:48;;;;;;;0.30;0.20;;;3.50;99.90;;;;;;5021306;28;20017;-63
2023/12/07 01:58:17;;;;;;;0.28;0.28;;;3.50;99.90;;;;;;5021283;28;20767;-63
2023/12/07 02:00:42;;;;;;;0.10;0.10;;;3.50;99.90;;;;;;5024654;28;20425;-63
2023/12/07 02:03:08;;;;;;;0.40;0.40;;;3.40;99.90;;;;;;5019160;28;20044;-62
2023/12/07 02:05:35;;;;;;;0.20;0.20;;;3.40;99.90;;;;;;5020946;28;20340;-63
2023/12/07 02:08:01;;;;;;;0.50;0.10;;;3.40;99.90;;;;;;5020857;28;20025;-62
2023/12/07 02:10:26;;;;;;;0.10;0.10;;;3.40;99.90;;;;;;5020207;28;20044;-63
2023/12/07 02:12:55;;;;;;;0.10;0.10;;;3.40;99.90;;;;;;5021235;28;20044;-64
2023/12/07 02:15:21;;;;;;;0.20;0.20;;;3.50;99.90;;;;;;5024444;28;20040;-64
2023/12/07 02:18:21;;;;;;;0.15;0.15;;;3.50;99.90;;;;;;5022252;28;20029;-65
2023/12/07 02:21:10;;;;;;;0.20;0.20;;;3.50;99.90;;;;;;5019546;28;20414;-63
2023/12/07 02:23:38;;;;;;;0.10;0.10;;;3.50;99.90;;;;;;5019974;28;20032;-63
2023/12/07 02:28:42;;;;;;;1.75;0.20;;;3.50;99.90;;;;;;4670596;27;9038573;-63
2023/12/07 02:31:08;;;;;;;0.20;0.20;;;3.40;99.90;;;;;;5023073;28;20040;-62
2023/12/07 02:33:34;;;;;;;0.68;0.40;;;3.40;99.90;;;;;;5029427;28;20068;-62
2023/12/07 02:35:59;;;;;;;0.50;0.28;;;3.40;99.90;;;;;;5036058;28;20088;-63
2023/12/07 02:38:28;;;;;;;0.38;0.30;;;3.40;99.90;;;;;;5033309;28;20127;-62
2023/12/07 02:40:55;;;;;;;0.40;0.35;;;3.40;99.90;;;;;;5030182;28;20346;-63
2023/12/07 02:43:22;;;;;;;0.50;0.40;;;3.40;99.90;;;;;;5040037;28;20040;-63
2023/12/07 02:45:48;;;;;;;1.00;0.43;;;3.40;99.90;;;;;;5034353;28;20025;-63
2023/12/07 02:48:14;;;;;;;0.32;0.32;;;3.40;99.90;;;;;;5039482;28;20091;-63
2023/12/07 02:50:39;;;;;;;1.45;0.70;;;3.50;99.90;;;;;;5040209;28;20033;-63
2023/12/07 02:53:05;;;;;;;0.50;0.50;;;3.50;99.90;;;;;;5039456;28;20067;-62
2023/12/07 02:55:30;;;;;;;0.98;0.50;;;3.50;99.90;;;;;;5021119;28;20422;-61
2023/12/07 02:57:56;;;;;;;0.65;0.65;;;3.50;99.90;;;;;;5038882;28;20131;-64
2023/12/07 03:00:22;;;;;;;0.30;0.30;;;3.50;99.90;;;;;;5041240;28;20782;-63
2023/12/07 03:02:47;;;;;;;0.40;0.40;;;3.50;99.90;;;;;;5043385;28;20032;-69
2023/12/07 03:05:13;;;;;;;0.50;0.40;;;3.50;99.90;;;;;;5043464;28;20410;-68
2023/12/07 03:07:39;;;;;;;0.40;0.40;;;3.50;99.90;;;;;;5046058;28;20137;-68
2023/12/07 03:10:05;;;;;;;0.40;0.30;;;3.50;99.90;;;;;;5041424;28;20025;-68
2023/12/07 03:12:31;;;;;;;0.35;0.35;;;3.50;99.90;;;;;;5055129;28;20051;-66
2023/12/07 03:14:57;;;;;;;0.40;0.40;;;3.50;99.90;;;;;;5065638;28;20032;-67
2023/12/07 03:17:23;;;;;;;0.20;0.20;;;3.50;99.90;;;;;;5042368;28;20040;-67
2023/12/07 03:19:49;;;;;;;0.20;0.20;;;3.50;99.90;;;;;;5056206;28;20027;-68
2023/12/07 03:22:14;;;;;;;0.40;0.30;;;3.50;99.90;;;;;;5056934;28;20028;-67
2023/12/07 03:24:47;;;;;;;0.43;0.35;;;3.50;99.90;;;;;;5056692;28;20032;-68
2023/12/07 03:27:13;;;;;;;0.30;0.30;;;3.50;99.90;;;;;;5058090;28;20032;-67
2023/12/07 03:29:38;;;;;;;0.20;0.20;;;3.50;99.90;;;;;;5050291;28;20046;-67
2023/12/07 03:32:04;;;;;;;0.10;0.10;;;3.40;99.90;;;;;;5056415;28;20028;-67
2023/12/07 03:34:30;;;;;;;0.80;0.20;;;3.40;99.90;;;;;;5056543;28;20055;-67
2023/12/07 03:36:55;;;;;;;0.32;0.13;;;3.50;99.90;;;;;;5051715;28;20107;-67
2023/12/07 03:39:22;;;;;;;0.10;0.10;;;3.50;99.90;;;;;;5037849;28;20469;-67
2023/12/07 03:41:49;;;;;;;0.32;0.10;;;3.50;99.90;;;;;;5037696;28;20040;-68
2023/12/07 03:44:15;;;;;;;0.10;0.10;;;3.50;99.90;;;;;;5039974;28;20047;-67
2023/12/07 03:46:40;;;;;;;0.10;0.10;;;3.50;99.90;;;;;;5038974;28;20489;-67
2023/12/07 03:49:06;;;;;;;0.00;0.00;;;3.50;99.90;;;;;;5026396;28;20048;-67
2023/12/07 03:51:31;;;;;;;0.20;0.10;;;3.50;99.90;;;;;;5041063;28;20048;-67
2023/12/07 03:53:57;;;;;;;0.10;0.10;;;3.50;99.90;;;;;;5039394;28;20060;-67
2023/12/07 03:56:28;;;;;;;0.28;0.20;;;3.60;99.90;;;;;;5042540;28;20044;-68
2023/12/07 03:58:54;;;;;;;0.20;0.20;;;3.60;99.90;;;;;;5043712;28;20025;-67
2023/12/07 04:01:24;;;;;;;0.10;0.10;;;3.50;99.90;;;;;;5050059;28;20043;-67
2023/12/07 04:03:50;;;;;;;0.30;0.20;;;3.50;99.90;;;;;;5051289;28;20032;-67
2023/12/07 04:06:16;;;;;;;0.20;0.10;;;3.50;99.90;;;;;;5042805;28;20634;-67
2023/12/07 04:08:42;;;;;;;0.10;0.10;;;3.50;99.90;;;;;;5047028;28;20567;-67
2023/12/07 04:11:08;;;;;;;0.28;0.10;;;3.50;99.90;;;;;;5046695;28;20035;-67
2023/12/07 04:13:33;;;;;;;0.08;0.08;;;3.40;99.90;;;;;;5048650;28;20032;-68
2023/12/07 04:15:59;;;;;;;0.63;0.13;;;3.40;99.90;;;;;;5039172;28;21846;-67
2023/12/07 04:18:24;;;;;;;0.10;0.10;;;3.40;99.90;;;;;;5047733;28;20025;-67
2023/12/07 04:20:50;;;;;;;0.10;0.10;;;3.40;99.90;;;;;;5048844;28;20025;-67
2023/12/07 04:23:16;;;;;;;0.10;0.10;;;3.40;99.90;;;;;;5045662;28;20033;-67
2023/12/07 04:25:41;;;;;;;0.10;0.10;;;3.40;99.90;;;;;;5048190;28;20115;-67
2023/12/07 04:28:07;;;;;;;0.10;0.10;;;3.40;99.90;;;;;;5045023;28;20079;-68
2023/12/07 04:30:32;;;;;;;0.00;0.00;;;3.40;99.90;;;;;;5044087;28;20038;-67
2023/12/07 04:32:58;;;;;;;0.03;0.00;;;3.40;99.90;;;;;;5048137;28;20107;-67
2023/12/07 04:35:24;;;;;;;0.10;0.10;;;3.40;99.90;;;;;;5044684;28;20036;-67
2023/12/07 04:37:49;;;;;;;0.15;0.10;;;3.40;99.90;;;;;;5045689;28;20724;-68
2023/12/07 04:40:15;;;;;;;0.10;0.10;;;3.50;99.90;;;;;;5041465;28;20457;-67
2023/12/07 04:42:41;;;;;;;0.00;0.00;;;3.50;99.90;;;;;;5045933;28;20508;-67
2023/12/07 04:45:07;;;;;;;0.00;0.00;;;3.50;99.90;;;;;;5042793;28;20044;-67
2023/12/07 04:47:33;;;;;;;0.30;0.05;;;3.50;99.90;;;;;;5046701;28;20037;-68
2023/12/07 04:49:59;;;;;;;1.08;0.77;;;3.50;99.90;;;;;;5041205;28;20154;-68
2023/12/07 04:52:24;;;;;;;4.18;1.95;;;3.50;99.90;;;;;;5044733;28;20095;-67
2023/12/07 04:54:50;;;;;;;5.88;3.17;;;3.50;99.90;;;;;;5042581;28;20031;-68
2023/12/07 04:57:16;;;;;;;4.18;2.58;;;3.50;99.90;;;;;;5042662;28;21173;-67
2023/12/07 04:59:46;;;;;;;4.88;2.50;;;3.50;99.90;;;;;;5027185;28;20650;-67
2023/12/07 05:02:18;;;;;;;2.00;1.20;;;3.60;99.90;;;;;;5037575;28;20554;-68
2023/12/07 05:04:45;;;;;;;2.38;1.58;;;3.50;99.90;;;;;;5042578;28;20013;-67
2023/12/07 05:07:13;;;;;;;2.03;1.80;;;3.50;99.90;;;;;;5045570;28;20586;-67
2023/12/07 05:09:38;;;;;;;7.35;3.63;;;3.50;99.90;;;;;;5040938;28;20028;-66
2023/12/07 05:12:05;;;;;;;4.63;2.00;;;3.50;99.90;;;;;;5040908;28;20032;-67
2023/12/07 05:14:31;;;;;;;6.32;2.20;;;3.40;99.90;;;;;;5039717;28;20032;-66
2023/12/07 05:16:57;;;;;;;5.05;2.72;;;3.40;99.90;;;;;;5044152;28;20366;-66
2023/12/07 05:19:24;;;;;;;3.92;2.20;;;3.30;99.90;;;;;;5042968;28;20467;-66
2023/12/07 05:21:49;;;;;;;4.03;1.67;;;3.30;99.90;;;;;;5044211;28;20044;-66
2023/12/07 05:24:15;;;;;;;6.40;2.60;;;3.30;99.90;;;;;;5042796;28;20111;-66
2023/12/07 05:26:47;;;;;;;9.02;4.00;;;3.30;99.90;;;;;;5039713;28;21161;-66
2023/12/07 05:29:15;;;;;;;9.93;4.40;;;3.40;99.90;;;;;;5042264;28;20458;-66
2023/12/07 05:31:40;;;;;;;4.53;2.40;;;3.40;99.90;;;;;;5037614;28;20093;-66
2023/12/07 05:34:07;;;;;;;5.18;3.30;;;3.40;99.90;;;;;;5045013;28;20033;-66
2023/12/07 05:36:33;;;;;;;9.80;5.75;;;3.40;99.90;;;;;;5043237;28;20128;-66
2023/12/07 05:38:59;;;;;;;9.75;5.75;;;3.40;99.90;;;;;;5040509;28;20444;-66
2023/12/07 05:41:25;;;;;;;6.93;3.78;;;3.40;99.90;;;;;;5043967;28;20481;-67
2023/12/07 05:43:52;;;;;;;3.85;2.53;;;3.30;99.90;;;;;;5045861;28;20025;-67
2023/12/07 05:46:18;;;;;;;8.52;4.47;;;3.30;99.90;;;;;;5047508;28;20028;-66
2023/12/07 05:48:43;;;;;;;7.45;4.75;;;3.40;99.90;;;;;;5045495;28;20028;-66
2023/12/07 05:51:17;;;;;;;7.15;4.40;;;3.50;99.90;;;;;;5046087;28;20025;-67
2023/12/07 05:53:43;;;;;;;5.45;3.50;;;3.50;99.90;;;;;;5048735;28;20028;-67
2023/12/07 05:56:10;;;;;;;24.27;13.43;;;3.40;99.90;;;;;;5049603;28;20397;-67
2023/12/07 05:58:36;;;;;;;23.27;14.07;;;3.50;99.90;;;;;;5044144;28;20028;-67
2023/12/07 06:01:02;;;;;;;25.33;15.55;;;3.40;99.90;;;;;;5047016;28;20422;-67
2023/12/07 06:03:29;;;;;;;19.52;9.68;;;3.40;99.90;;;;;;5045745;28;20029;-67
2023/12/07 06:05:55;;;;;;;6.30;5.15;;;3.40;99.90;;;;;;5046305;28;20210;-62
2023/12/07 06:08:21;;;;;;;14.05;8.65;;;3.40;99.90;;;;;;5040623;28;20037;-62
2023/12/07 06:10:47;;;;;;;13.57;7.70;;;3.40;99.90;;;;;;5021447;28;20062;-63
2023/12/07 06:13:13;;;;;;;6.18;4.60;;;3.30;99.90;;;;;;5044516;28;20044;-62
2023/12/07 06:15:39;;;;;;;8.43;5.35;;;3.40;99.90;;;;;;5039530;28;20028;-63
2023/12/07 06:18:05;;;;;;;18.75;10.55;;;3.40;99.90;;;;;;5041549;28;20405;-62
2023/12/07 06:20:31;;;;;;;8.82;6.85;;;3.40;99.90;;;;;;5038916;28;20043;-62
2023/12/07 06:22:57;;;;;;;8.23;6.07;;;3.40;99.90;;;;;;5038966;28;20028;-62
2023/12/07 06:25:23;;;;;;;5.57;4.32;;;3.40;99.90;;;;;;5038870;28;20412;-68
2023/12/07 06:27:49;;;;;;;5.82;3.72;;;3.30;99.90;;;;;;5040980;28;20048;-69
2023/12/07 06:30:15;;;;;;;3.78;3.15;;;3.30;99.90;;;;;;5034881;28;20036;-69
2023/12/07 06:32:40;;;;;;;3.75;3.42;;;3.30;99.90;;;;;;5034746;28;20869;-71
2023/12/07 06:35:07;;;;;;;2.92;2.00;;;3.30;99.90;;;;;;5034125;28;20036;-70
2023/12/07 06:37:32;;;;;;;2.72;2.53;;;3.30;99.90;;;;;;5043692;28;20526;-69
2023/12/07 06:39:59;;;;;;;2.63;2.13;;;3.30;99.90;;;;;;5045555;28;20037;-69
2023/12/07 06:42:26;;;;;;;2.47;2.10;;;3.40;99.90;;;;;;5041912;28;20412;-69
2023/12/07 06:44:51;;;;;;;4.80;4.22;;;3.40;99.90;;;;;;5047014;28;20097;-64
2023/12/07 06:47:18;;;;;;;8.85;6.75;;;3.40;99.90;;;;;;5048571;28;20053;-65
2023/12/07 06:49:43;;;;;;;14.75;10.48;;;3.50;99.90;;;;;;5044732;28;20045;-64
2023/12/07 06:52:10;;;;;;;20.25;12.93;;;3.50;99.90;;;;;;5044218;28;20029;-64
2023/12/07 06:54:36;;;;;;;24.35;14.63;;;3.50;99.90;;;;;;5050557;28;20032;-64
2023/12/07 06:57:02;;;;;;;17.38;11.32;;;3.60;99.90;;;;;;5047373;28;20037;-64
2023/12/07 06:59:28;;;;;;;17.20;11.25;;;3.60;99.90;;;;;;5046171;28;20063;-64
2023/12/07 07:01:54;;;;;;;;;;;3.60;99.90;;;;;;5040056;28;20036;-69
2023/12/07 07:04:19;;;;;;;;;;;3.60;99.90;;;;;;5048627;28;19912;-69
2023/12/07 07:06:45;;;;;;;;;;;3.60;99.90;;;;;;5047191;28;19924;-69
2023/12/07 07:09:11;;;;;;;;;;;3.60;99.90;;;;;;5048055;28;19912;-70
2023/12/07 07:11:37;;;;;;;;;;;3.70;99.90;;;;;;5048350;28;20444;-70
2023/12/07 07:14:02;;;;;;;;;;;3.60;99.90;;;;;;5045164;28;19918;-70
2023/12/07 07:16:28;;;;;;;;;;;3.60;99.90;;;;;;5040701;28;19921;-69
2023/12/07 07:18:53;;;;;;;;;;;3.60;99.90;;;;;;5056391;28;19912;-69
2023/12/07 07:21:19;;;;;;;;;;;3.60;99.90;;;;;;5053752;28;19922;-64
2023/12/07 07:23:45;;;;;;;;;;;3.60;99.90;;;;;;5053683;28;19934;-65
2023/12/07 07:26:10;;;;;;;;;;;3.60;99.90;;;;;;5047882;28;19916;-64
2023/12/07 07:28:36;;;;;;;;;;;3.60;99.90;;;;;;5049073;28;19927;-64
2023/12/07 07:31:02;;;;;;;;;;;3.60;99.90;;;;;;5045554;28;20533;-64
2023/12/07 07:33:28;;;;;;;;;;;3.70;99.90;;;;;;5028334;28;20392;-64
2023/12/07 07:35:53;;;;;;;;;;;3.70;99.90;;;;;;5050396;28;19916;-64
2023/12/07 07:38:19;;;;;;;;;;;3.80;99.90;;;;;;5046476;28;19971;-69
2023/12/07 07:40:45;;;;;;;;;;;3.80;99.90;;;;;;5050903;28;20352;-69
2023/12/07 07:43:10;;;;;;;;;;;3.80;99.90;;;;;;5029389;28;19982;-69
2023/12/07 07:45:36;;;;;;;;;;;3.90;99.90;;;;;;5044821;28;19920;-69
2023/12/07 07:48:01;;;;;;;;;;;3.80;99.90;;;;;;5046309;28;20668;-69
2023/12/07 07:50:28;;;;;;;;;;;3.70;99.90;;;;;;5051212;28;19916;-69
2023/12/07 07:52:54;;;;;;;;;;;3.70;99.90;;;;;;5045872;28;19917;-69
2023/12/07 07:55:20;;;;;;;;;;;3.70;99.90;;;;;;5045340;28;20008;-69
2023/12/07 07:57:45;;;;;;;;;;;3.70;99.90;;;;;;5045986;28;19916;-70
2023/12/07 08:00:12;;;;;;;;;;;3.70;99.90;;;;;;5049729;28;19915;-69
2023/12/07 08:02:38;;;;;;;;;;;3.70;99.90;;;;;;5044164;28;19920;-69
2023/12/07 08:05:04;;;;;;;;;;;3.70;99.90;;;;;;5048960;28;19912;-69
2023/12/07 08:07:29;;;;;;;;;;;3.70;99.90;;;;;;5038821;28;19920;-69
2023/12/07 08:09:55;;;;;;;;;;;3.70;99.90;;;;;;5041755;28;19912;-69
2023/12/07 08:12:22;;;;;;;;;;;3.70;99.90;;;;;;5044015;28;20446;-69
2023/12/07 08:14:48;;;;;;;;;;;3.70;99.90;;;;;;5047736;28;19916;-69
2023/12/07 08:17:14;;;;;;;;;;;3.70;99.90;;;;;;5043382;28;20335;-69
2023/12/07 08:19:41;;;;;;;;;;;3.70;99.90;;;;;;5047474;28;19920;-69
2023/12/07 08:22:06;;;;;;;;;;;3.70;99.90;;;;;;5046442;28;19912;-69
2023/12/07 08:24:32;;;;;;;;;;;3.60;99.90;;;;;;5044094;28;20469;-69
2023/12/07 08:26:57;;;;;;;;;;;3.50;99.90;;;;;;5050882;28;20539;-69
2023/12/07 08:29:23;;;;;;;;;;;3.50;99.90;;;;;;5044445;28;19921;-69
2023/12/07 08:31:48;;;;;;;;;;;3.50;99.90;;;;;;5051145;28;19966;-69
2023/12/07 08:34:14;;;;;;;;;;;3.50;99.90;;;;;;5044580;28;19913;-69
2023/12/07 08:36:39;;;;;;;;;;;3.60;99.90;;;;;;5044656;28;19912;-69
2023/12/07 08:39:09;;;;;;;;;;;3.60;99.90;;;;;;5037876;28;19919;-69
2023/12/07 08:41:35;;;;;;;;;;;3.60;99.90;;;;;;5045879;28;19917;-69
2023/12/07 08:44:00;;;;;;;;;;;3.60;99.90;;;;;;5046958;28;20385;-69
2023/12/07 08:46:26;;;;;;;;;;;3.60;99.90;;;;;;5047160;28;20472;-69
2023/12/07 08:48:51;;;;;;;;;;;3.70;99.90;;;;;;5036453;28;22039;-69
2023/12/07 08:51:17;;;;;;;;;;;3.70;99.90;;;;;;5038637;28;19916;-69
2023/12/07 08:53:42;;;;;;;;;;;3.70;99.90;;;;;;5048605;28;19916;-69
2023/12/07 08:56:08;;;;;;;;;;;3.70;99.90;;;;;;5046463;28;19955;-69
2023/12/07 08:58:33;;;;;;;;;;;3.70;99.90;;;;;;5046854;28;20612;-69
2023/12/07 09:00:58;;;;;;;;;;;3.60;99.90;;;;;;5044708;28;20090;-69
2023/12/07 09:03:27;;;;;;;;;;;3.60;99.90;;;;;;5043730;28;20376;-69
2023/12/07 09:05:53;;;;;;;;;;;3.60;99.90;;;;;;5041840;28;19923;-70
2023/12/07 09:08:18;;;;;;;;;;;3.60;99.90;;;;;;5037670;28;19925;-69
2023/12/07 09:10:44;;;;;;;;;;;3.60;99.90;;;;;;5040418;28;19917;-69
2023/12/07 09:13:09;;;;;;;;;;;3.60;99.90;;;;;;5044981;28;19912;-69
2023/12/07 09:15:37;;;;;;;;;;;3.70;99.90;;;;;;5044063;28;20003;-69
2023/12/07 09:18:03;;;;;;;;;;;3.80;99.90;;;;;;5047636;28;19951;-69
2023/12/07 09:20:28;;;;;;;;;;;3.80;99.90;;;;;;5047752;28;20355;-70
2023/12/07 09:22:55;;;;;;;;;;;3.90;99.90;;;;;;5047367;28;19912;-69
2023/12/07 09:25:21;;;;;;;;;;;4.00;99.90;;;;;;5042354;28;19916;-69
2023/12/07 09:27:47;;;;;;;;;;;4.00;99.90;;;;;;5047287;28;20323;-70
2023/12/07 09:30:13;;;;;;;;;;;4.00;99.90;;;;;;5044876;28;20389;-70
